Time;durP1;ratioP1;P1;durP2;ratioP2;P2;SDS_P1;SDS_P2;PMS_P1;PMS_P2;Temp;Humidity;BMP_temperature;BMP_pressure;BME280_temperature;BME280_humidity;BME280_pressure;Samples;Min_cycle;Max_cycle;Signal;HPM_P1;HPM_P2
2022/06/15 00:00:34;;;;;;;;;3.75;3.75;;;;;21.60;41.31;101276.50;6250885;22;47014;-80
2022/06/15 00:03:00;;;;;;;;;5.50;5.50;;;;;21.57;41.46;101276.63;6278703;22;45303;-80
2022/06/15 00:05:25;;;;;;;;;3.00;3.00;;;;;21.54;41.86;101274.97;6276758;22;45237;-80
2022/06/15 00:07:52;;;;;;;;;3.67;3.67;;;;;21.50;41.77;101270.66;6275828;22;45939;-80
2022/06/15 00:10:18;;;;;;;;;4.75;4.75;;;;;21.47;42.01;101270.78;6251081;22;48094;-80
2022/06/15 00:12:44;;;;;;;;;4.50;4.50;;;;;21.46;42.14;101273.50;6251125;22;45396;-80
2022/06/15 00:15:10;;;;;;;;;5.50;5.50;;;;;21.42;42.02;101271.91;6279137;22;45391;-81
2022/06/15 00:17:35;;;;;;;;;5.00;5.00;;;;;21.40;42.37;101271.09;6278656;22;45261;-80
2022/06/15 00:20:01;;;;;;;;;5.25;5.25;;;;;21.34;42.48;101273.03;6278852;22;45358;-80
2022/06/15 00:22:27;;;;;;;;;6.50;6.50;;;;;21.30;42.48;101275.91;6278982;22;45178;-80
2022/06/15 00:24:52;;;;;;;;;4.00;4.00;;;;;21.29;42.42;101271.47;6278847;22;45283;-80
2022/06/15 00:27:20;;;;;;;;;4.50;4.50;;;;;21.28;42.94;101267.06;6279993;22;45363;-81
2022/06/15 00:29:46;;;;;;;;;5.00;5.00;;;;;21.24;43.11;101268.13;6278698;22;45329;-81
2022/06/15 00:32:11;;;;;;;;;3.00;2.33;;;;;21.22;43.14;101272.66;6276443;22;45110;-81
2022/06/15 00:34:37;;;;;;;;;6.00;5.00;;;;;21.20;43.19;101277.19;6277488;22;45165;-80
2022/06/15 00:37:04;;;;;;;;;4.50;4.50;;;;;21.18;43.68;101274.59;6278526;22;45340;-80
2022/06/15 00:39:30;;;;;;;;;5.00;5.00;;;;;21.15;43.72;101280.94;6278299;22;46482;-80
2022/06/15 00:41:56;;;;;;;;;4.00;4.00;;;;;21.14;43.90;101284.56;6251509;22;45333;-80
2022/06/15 00:44:21;;;;;;;;;4.00;4.00;;;;;21.12;43.97;101285.56;6279620;22;45466;-81
2022/06/15 00:46:55;;;;;;;;;7.75;7.25;;;;;21.11;44.03;101279.28;6250798;22;45376;-81
2022/06/15 00:49:29;;;;;;;;;6.33;5.00;;;;;21.10;43.43;101279.38;6250630;22;48339;-81
2022/06/15 00:52:44;;;;;;;;;3.33;3.33;;;;;21.02;43.66;101277.00;6250809;22;45308;-81
2022/06/15 00:55:18;;;;;;;;;5.25;4.50;;;;;20.97;44.14;101270.06;6264233;22;45359;-80
2022/06/15 00:57:44;;;;;;;;;4.33;4.33;;;;;20.92;44.74;101284.50;6250727;22;45462;-81
2022/06/15 01:00:12;;;;;;;;;4.00;4.00;;;;;20.89;44.50;101279.25;6225016;22;47881;-81
2022/06/15 01:02:39;;;;;;;;;7.33;5.00;;;;;20.86;44.53;101287.41;6250576;22;45792;-80
2022/06/15 01:05:47;;;;;;;;;4.25;4.25;;;;;20.83;44.56;101274.16;6251000;22;45293;-80
2022/06/15 01:08:31;;;;;;;;;4.25;4.25;;;;;20.80;44.57;101287.66;6213964;22;45403;-81
2022/06/15 01:11:12;;;;;;;;;8.25;4.75;;;;;20.80;44.94;101284.97;6278568;22;46267;-81
2022/06/15 01:13:46;;;;;;;;;5.00;4.00;;;;;20.78;45.04;101280.63;6250707;22;45419;-81
2022/06/15 01:16:52;;;;;;;;;4.00;4.00;;;;;20.74;45.24;101277.16;6278788;22;45323;-81
2022/06/15 01:19:37;;;;;;;;;6.25;5.50;;;;;20.70;45.40;101286.25;6207600;22;45609;-81
2022/06/15 01:22:29;;;;;;;;;4.00;4.00;;;;;20.68;45.14;101280.06;6255502;22;47430;-82
2022/06/15 01:25:17;;;;;;;;;3.67;3.33;;;;;20.63;45.58;101280.22;6283784;22;45417;-81
2022/06/15 01:28:07;;;;;;;;;7.00;6.00;;;;;20.62;45.45;101283.84;6279280;22;45476;-81
2022/06/15 01:30:42;;;;;;;;;7.00;5.00;;;;;20.59;45.88;101267.91;6279575;22;45249;-81
2022/06/15 01:33:27;;;;;;;;;5.67;4.33;;;;;20.57;45.69;101276.91;6253295;22;46835;-81
2022/06/15 01:36:18;;;;;;;;;6.00;5.00;;;;;20.53;46.05;101281.50;6253216;22;45548;-80
2022/06/15 01:39:07;;;;;;;;;5.67;5.00;;;;;20.49;45.67;101278.03;6246208;22;45489;-81
2022/06/15 01:41:43;;;;;;;;;6.50;5.50;;;;;20.46;46.00;101272.81;6280259;22;45411;-80
2022/06/15 01:44:19;;;;;;;;;5.25;5.00;;;;;20.43;45.94;101283.63;6252811;22;46505;-81
2022/06/15 01:46:46;;;;;;;;;4.00;4.00;;;;;20.40;46.43;101270.34;6254475;22;45276;-81
2022/06/15 01:49:35;;;;;;;;;6.00;5.00;;;;;20.39;46.22;101273.06;6255483;22;44774;-80
2022/06/15 01:52:03;;;;;;;;;6.00;4.75;;;;;20.38;46.26;101263.31;6254154;22;45179;-81
2022/06/15 01:54:42;;;;;;;;;6.00;5.00;;;;;20.37;46.97;101272.25;6250985;22;48097;-81
2022/06/15 01:57:09;;;;;;;;;5.00;5.00;;;;;20.35;46.69;101264.31;6250701;22;45395;-81
2022/06/15 01:59:48;;;;;;;;;4.25;4.25;;;;;20.33;46.49;101257.25;6279011;22;45240;-80
2022/06/15 02:02:27;;;;;;;;;4.67;4.67;;;;;20.31;46.69;101259.97;6276364;22;45382;-80
2022/06/15 02:05:05;;;;;;;;;5.00;5.00;;;;;20.30;46.57;101263.59;6250487;22;47063;-81
2022/06/15 02:07:53;;;;;;;;;4.75;4.75;;;;;20.30;47.14;101260.03;6250769;22;45173;-81
2022/06/15 02:10:36;;;;;;;;;5.00;5.00;;;;;20.27;47.02;101261.03;6278708;22;45453;-81
2022/06/15 02:13:25;;;;;;;;;6.75;5.75;;;;;20.23;47.33;101254.03;6278242;22;45387;-81
2022/06/15 02:15:57;;;;;;;;;3.00;3.00;;;;;20.20;47.67;101252.34;6250280;22;47766;-80
2022/06/15 02:18:24;;;;;;;;;5.33;4.67;;;;;20.18;47.40;101253.31;6278003;22;45212;-81
2022/06/15 02:21:20;;;;;;;;;5.00;5.00;;;;;20.15;47.29;101250.75;6278107;22;45363;-81
2022/06/15 02:23:51;;;;;;;;;5.67;4.67;;;;;20.13;47.62;101250.84;6273479;22;45451;-81
2022/06/15 02:26:18;;;;;;;;;7.00;6.00;;;;;20.10;47.52;101248.28;6278198;22;45588;-81
2022/06/15 02:28:55;;;;;;;;;5.00;5.00;;;;;20.09;47.35;101250.97;6277982;22;45292;-81
2022/06/15 02:31:21;;;;;;;;;5.50;5.00;;;;;20.08;47.97;101247.44;6250107;22;45484;-80
2022/06/15 02:33:51;;;;;;;;;5.33;5.33;;;;;20.04;47.46;101245.78;6275544;22;45351;-81
2022/06/15 02:36:17;;;;;;;;;6.25;5.00;;;;;20.00;47.92;101250.38;6277789;22;45988;-81
2022/06/15 02:38:46;;;;;;;;;5.75;5.75;;;;;19.97;47.87;101245.16;6277331;22;45411;-81
2022/06/15 02:41:12;;;;;;;;;5.00;5.00;;;;;19.95;48.06;101243.44;6278353;22;45336;-81
2022/06/15 02:43:41;;;;;;;;;7.50;7.25;;;;;19.91;48.11;101252.50;6278175;22;45173;-81
2022/06/15 02:46:09;;;;;;;;;5.00;5.00;;;;;19.88;48.36;101244.59;6250317;22;46974;-80
2022/06/15 02:48:36;;;;;;;;;5.75;5.75;;;;;19.87;48.62;101248.19;6277490;22;45304;-80
2022/06/15 02:51:06;;;;;;;;;4.00;2.00;;;;;19.85;48.68;101242.03;6250383;22;45316;-80
2022/06/15 02:53:34;;;;;;;;;6.25;6.25;;;;;19.83;48.75;101250.97;6278060;22;45187;-80
2022/06/15 02:56:02;;;;;;;;;6.00;4.75;;;;;19.83;48.74;101242.97;6278155;22;45387;-80
2022/06/15 02:58:32;;;;;;;;;5.00;4.75;;;;;19.83;49.04;101247.41;6275898;22;45804;-80
2022/06/15 03:00:58;;;;;;;;;6.50;6.50;;;;;19.84;48.76;101243.81;6278046;22;45174;-80
2022/06/15 03:03:26;;;;;;;;;5.00;5.00;;;;;19.82;49.13;101251.00;6251381;22;45497;-80
2022/06/15 03:05:52;;;;;;;;;6.00;5.00;;;;;19.79;48.96;101245.78;6251631;22;47897;-80
2022/06/15 03:08:20;;;;;;;;;6.25;5.75;;;;;19.80;48.62;101250.19;6277861;22;45283;-80
2022/06/15 03:10:48;;;;;;;;;5.50;5.25;;;;;19.80;49.29;101252.84;6279990;22;45213;-82
2022/06/15 03:13:13;;;;;;;;;5.75;5.75;;;;;19.81;48.82;101255.50;6280312;22;45390;-81
2022/06/15 03:15:39;;;;;;;;;5.75;5.00;;;;;19.80;49.18;101258.19;6281230;22;45363;-80
2022/06/15 03:18:04;;;;;;;;;5.00;5.00;;;;;19.77;49.45;101250.28;6281461;22;45287;-81
2022/06/15 03:20:30;;;;;;;;;6.00;6.00;;;;;19.74;49.50;101255.75;6279550;22;45332;-80
2022/06/15 03:22:55;;;;;;;;;6.50;6.50;;;;;19.71;49.40;101255.84;6281386;22;45448;-81
2022/06/15 03:25:21;;;;;;;;;7.50;6.50;;;;;19.69;49.33;101253.22;6280475;22;45327;-81
2022/06/15 03:27:48;;;;;;;;;5.25;5.25;;;;;19.69;49.27;101247.88;6279455;22;45353;-82
2022/06/15 03:30:13;;;;;;;;;7.25;6.25;;;;;19.71;49.39;101253.19;6279719;22;45231;-81
2022/06/15 03:32:39;;;;;;;;;7.25;6.00;;;;;19.71;49.30;101262.06;6277377;22;45234;-81
2022/06/15 03:35:05;;;;;;;;;6.25;6.25;;;;;19.70;49.52;101263.00;6279204;22;45223;-81
2022/06/15 03:37:31;;;;;;;;;6.00;5.33;;;;;19.71;49.26;101258.53;6278799;22;45162;-80
2022/06/15 03:39:56;;;;;;;;;4.75;4.75;;;;;19.71;49.36;101255.84;6279006;22;45296;-81
2022/06/15 03:42:24;;;;;;;;;6.00;5.50;;;;;19.72;49.30;101250.44;6251234;22;45231;-81
2022/06/15 03:44:51;;;;;;;;;6.00;6.00;;;;;19.71;49.46;101259.38;6251458;22;48484;-80
2022/06/15 03:47:20;;;;;;;;;5.50;5.50;;;;;19.70;49.46;101251.41;6251137;22;45608;-81
2022/06/15 03:49:51;;;;;;;;;7.00;6.00;;;;;19.65;49.38;101251.56;6279504;22;45235;-81
2022/06/15 03:52:27;;;;;;;;;8.00;6.00;;;;;19.65;49.81;101250.69;6278354;22;45803;-81
2022/06/15 03:54:53;;;;;;;;;8.75;7.00;;;;;19.66;50.05;101241.72;6253620;22;48228;-80
2022/06/15 03:57:21;;;;;;;;;5.50;4.50;;;;;19.66;49.80;101252.41;6283699;22;45161;-80
2022/06/15 03:59:47;;;;;;;;;7.50;6.75;;;;;19.66;49.63;101250.66;6282069;22;45161;-81
2022/06/15 04:02:13;;;;;;;;;4.50;4.50;;;;;19.67;49.49;101249.72;6278679;22;45403;-81
2022/06/15 04:04:38;;;;;;;;;6.00;5.00;;;;;19.66;49.63;101253.31;6276350;22;46848;-81
2022/06/15 04:08:34;;;;;;;;;6.25;6.00;;;;;19.67;49.77;101262.19;6278911;22;45328;-81
2022/06/15 04:09:51;;;;;;;;;6.00;5.25;;;;;19.71;49.86;101266.53;6278615;22;45379;-80
2022/06/15 04:12:17;;;;;;;;;9.50;9.00;;;;;19.69;49.64;101258.56;6250795;22;45557;-81
2022/06/15 04:14:42;;;;;;;;;6.75;6.75;;;;;19.71;49.34;101259.38;6278827;22;46047;-81
2022/06/15 04:17:08;;;;;;;;;5.00;5.00;;;;;19.70;49.47;101257.66;6251180;22;45450;-81
2022/06/15 04:19:33;;;;;;;;;9.25;8.25;;;;;19.67;49.84;101249.72;6251109;22;45261;-81
2022/06/15 04:21:59;;;;;;;;;7.75;6.50;;;;;19.64;49.63;101248.91;6276999;22;45497;-81
2022/06/15 04:24:28;;;;;;;;;7.00;7.00;;;;;19.61;49.39;101256.09;6278939;22;45446;-80
2022/06/15 04:26:53;;;;;;;;;8.00;7.00;;;;;19.60;49.66;101250.84;6251079;22;45364;-81
2022/06/15 04:29:20;;;;;;;;;7.00;7.00;;;;;19.60;50.17;101256.19;6251374;22;45402;-81
2022/06/15 04:31:46;;;;;;;;;6.75;6.75;;;;;19.59;49.93;101263.31;6279436;22;45319;-81
2022/06/15 04:34:12;;;;;;;;;7.00;7.00;;;;;19.59;50.11;101257.97;6250635;22;48212;-81
2022/06/15 04:36:42;;;;;;;;;7.00;7.00;;;;;19.61;49.85;101260.56;6276998;22;45238;-80
2022/06/15 04:39:12;;;;;;;;;7.50;6.00;;;;;19.61;49.60;101266.78;6276407;22;45248;-81
2022/06/15 04:41:39;;;;;;;;;9.00;7.00;;;;;19.61;50.15;101264.13;6278769;22;45355;-81
2022/06/15 04:44:06;;;;;;;;;8.25;5.50;;;;;19.65;50.07;101269.38;6278379;22;46616;-80
2022/06/15 04:46:33;;;;;;;;;8.25;7.00;;;;;19.65;50.21;101262.25;6278628;22;45174;-81
2022/06/15 04:48:58;;;;;;;;;5.50;5.50;;;;;19.66;49.91;101266.69;6276550;22;45403;-80
2022/06/15 04:51:26;;;;;;;;;9.50;7.00;;;;;19.66;49.88;101272.03;6250362;22;45340;-80
2022/06/15 04:53:54;;;;;;;;;7.25;6.00;;;;;19.69;49.66;101276.38;6251014;22;47069;-81
2022/06/15 04:56:20;;;;;;;;;7.25;7.00;;;;;19.69;49.75;101268.38;6278639;22;45209;-80
2022/06/15 04:58:46;;;;;;;;;7.25;7.25;;;;;19.70;49.77;101273.69;6278635;22;45169;-81
2022/06/15 05:01:13;;;;;;;;;7.75;7.25;;;;;19.72;49.77;101268.28;6278784;22;45227;-81
2022/06/15 05:03:40;;;;;;;;;7.25;6.50;;;;;19.73;50.00;101278.91;6250590;22;47667;-81
2022/06/15 05:06:37;;;;;;;;;7.75;6.50;;;;;19.74;49.76;101279.78;6278886;22;45260;-81
2022/06/15 05:09:08;;;;;;;;;7.75;7.75;;;;;19.76;50.14;101275.28;6276294;22;45359;-80
2022/06/15 05:11:34;;;;;;;;;6.75;6.75;;;;;19.79;49.65;101275.16;6250752;22;45529;-81
2022/06/15 05:14:00;;;;;;;;;8.00;7.75;;;;;19.79;49.74;101272.50;6276771;22;46973;-81
2022/06/15 05:16:26;;;;;;;;;6.00;6.00;;;;;19.81;50.02;101274.19;6276616;22;45377;-81
2022/06/15 05:18:52;;;;;;;;;8.25;6.25;;;;;19.83;49.80;101259.00;6278336;22;45421;-81
2022/06/15 05:21:17;;;;;;;;;8.25;8.25;;;;;19.88;49.78;101268.63;6278516;22;45330;-81
2022/06/15 05:23:43;;;;;;;;;9.00;8.00;;;;;19.89;49.75;101267.69;6277940;22;45340;-83
2022/06/15 05:26:09;;;;;;;;;10.25;7.75;;;;;19.91;49.96;101263.19;6278525;22;45152;-84
2022/06/15 05:28:34;;;;;;;;;8.75;8.75;;;;;19.93;49.60;101264.88;6276826;22;45206;-84
2022/06/15 05:31:10;;;;;;;;;8.00;8.00;;;;;19.95;49.50;101271.03;6278580;22;45202;-89
2022/06/15 05:33:36;;;;;;;;;8.00;6.75;;;;;19.97;49.80;101271.00;6276345;22;47270;-83
2022/06/15 05:39:06;;;;;;;;;9.25;9.25;;;;;20.02;49.62;101279.72;6225534;22;45511;-83
2022/06/15 05:41:32;;;;;;;;;9.00;8.50;;;;;20.03;49.56;101282.34;6250903;22;45571;-83
2022/06/15 05:44:03;;;;;;;;;8.00;8.00;;;;;20.04;49.87;101284.06;6278781;22;46347;-83
2022/06/15 05:46:34;;;;;;;;;6.00;6.00;;;;;20.05;49.89;101277.81;6250821;22;45193;-83
2022/06/15 05:49:02;;;;;;;;;11.25;7.25;;;;;20.10;49.61;101288.38;6250326;22;45358;-86
2022/06/15 05:51:28;;;;;;;;;8.50;6.00;;;;;20.12;49.41;101277.59;6250819;22;45434;-86
2022/06/15 05:53:55;;;;;;;;;11.50;9.50;;;;;20.14;49.67;101273.94;6250463;22;46100;-83
2022/06/15 05:56:21;;;;;;;;;8.50;7.25;;;;;20.17;49.36;101271.16;6250956;22;45238;-83
2022/06/15 05:58:47;;;;;;;;;7.25;6.50;;;;;20.20;49.02;101278.22;6278672;22;45231;-83
2022/06/15 06:01:24;;;;;;;;;7.00;7.00;;;;;20.23;49.33;101281.66;6250838;22;45157;-83
2022/06/15 06:04:16;;;;;;;;;8.00;6.75;;;;;20.26;49.35;101280.66;6276194;22;47881;-81
2022/06/15 06:06:42;;;;;;;;;10.50;9.75;;;;;20.27;49.14;101285.09;6250258;22;45162;-83
2022/06/15 06:09:08;;;;;;;;;10.00;8.00;;;;;20.27;49.09;101285.09;6250739;22;45475;-84
2022/06/15 06:11:35;;;;;;;;;4.75;4.75;;;;;20.27;48.72;101283.28;6276331;22;45317;-84
2022/06/15 06:14:00;;;;;;;;;10.00;9.00;;;;;20.29;49.09;101275.22;6278360;22;46473;-86
2022/06/15 06:16:26;;;;;;;;;8.50;8.50;;;;;20.32;49.20;101280.47;6250743;22;45490;-87
2022/06/15 06:18:51;;;;;;;;;9.50;8.50;;;;;20.38;48.86;101277.56;6277061;22;45313;-86
2022/06/15 06:21:18;;;;;;;;;8.00;8.00;;;;;20.45;49.05;101270.19;6278859;22;45375;-85
2022/06/15 06:23:43;;;;;;;;;9.00;9.00;;;;;20.51;48.66;101269.97;6281358;22;45225;-85
2022/06/15 06:26:26;;;;;;;;;9.00;8.00;;;;;20.59;48.56;101278.63;6256015;22;45415;-85
2022/06/15 06:28:52;;;;;;;;;10.25;9.00;;;;;20.66;48.97;101280.16;6259645;22;45282;-87
2022/06/15 06:31:20;;;;;;;;;10.25;8.75;;;;;20.73;48.19;101275.41;6290150;22;45683;-88
2022/06/15 06:33:46;;;;;;;;;6.75;6.00;;;;;20.79;48.54;101279.66;6296158;22;45450;-88
2022/06/15 06:36:34;;;;;;;;;8.00;8.00;;;;;20.82;47.87;101284.91;6259878;22;45914;-85
2022/06/15 06:39:02;;;;;;;;;8.75;7.25;;;;;20.88;48.11;101279.34;6280935;22;45387;-88
2022/06/15 06:41:30;;;;;;;;;11.75;10.00;;;;;20.95;47.62;101280.81;6278184;22;45513;-86
2022/06/15 06:43:56;;;;;;;;;9.25;8.75;;;;;21.04;47.79;101283.16;6270365;22;46899;-86
2022/06/15 06:46:22;;;;;;;;;10.75;8.25;;;;;21.12;47.57;101290.91;6249510;22;45265;-86
2022/06/15 06:48:48;;;;;;;;;12.25;11.00;;;;;21.17;47.03;101280.88;6250218;22;45356;-89
2022/06/15 06:51:16;;;;;;;;;8.67;6.33;;;;;21.26;47.41;101280.50;6281730;22;45352;-88
2022/06/15 06:53:42;;;;;;;;;10.50;8.00;;;;;21.38;47.28;101280.97;6277750;22;46424;-87
2022/06/15 06:56:09;;;;;;;;;9.25;7.00;;;;;21.49;46.91;101276.06;6277691;22;45280;-92
2022/06/15 06:58:35;;;;;;;;;5.50;5.50;;;;;21.58;46.66;101279.25;6251397;22;45598;-90
2022/06/15 07:01:01;;;;;;;;;8.00;7.50;;;;;21.67;46.25;101283.34;6252724;22;45471;-90
2022/06/15 07:03:27;;;;;;;;;10.75;9.00;;;;;21.78;46.32;101282.91;6278052;22;48053;-90
2022/06/15 07:05:59;;;;;;;;;8.33;7.67;;;;;21.84;45.87;101279.97;6253035;22;45697;-89
2022/06/15 07:08:25;;;;;;;;;8.33;8.00;;;;;21.94;45.64;101275.09;6252817;22;45286;-90
2022/06/15 07:10:51;;;;;;;;;10.50;10.00;;;;;21.98;45.54;101277.56;6277957;22;45207;-90
2022/06/15 07:13:16;;;;;;;;;12.75;8.25;;;;;22.04;45.37;101289.84;6278363;22;47851;-88
2022/06/15 07:15:41;;;;;;;;;8.25;7.25;;;;;22.08;45.17;101294.16;6252426;22;45239;-88
2022/06/15 07:18:07;;;;;;;;;11.50;11.50;;;;;22.11;44.93;101285.09;6277577;22;45261;-88
2022/06/15 07:20:33;;;;;;;;;11.25;9.25;;;;;22.16;45.13;101277.72;6279309;22;45182;-87
2022/06/15 07:22:59;;;;;;;;;11.50;11.50;;;;;22.25;44.84;101285.41;6279229;22;45701;-89
2022/06/15 07:25:24;;;;;;;;;12.50;10.75;;;;;22.37;45.06;101298.28;6279597;22;45322;-89
2022/06/15 07:27:51;;;;;;;;;10.75;9.00;;;;;22.51;44.52;101297.66;6277473;22;45292;-87
2022/06/15 07:30:22;;;;;;;;;12.00;10.50;;;;;22.60;44.53;101293.69;6251860;22;45345;-88
2022/06/15 07:32:47;;;;;;;;;9.50;8.25;;;;;22.75;44.39;101298.38;6251037;22;47336;-90
2022/06/15 07:35:21;;;;;;;;;8.00;8.00;;;;;22.92;44.00;101310.16;6276526;22;45398;-85
2022/06/15 07:37:48;;;;;;;;;10.25;8.50;;;;;23.05;42.96;101305.97;6256965;22;45303;-93
2022/06/15 07:40:14;;;;;;;;;12.33;10.67;;;;;23.11;43.12;101303.88;6251458;22;44800;-89
2022/06/15 07:42:40;;;;;;;;;8.67;8.67;;;;;23.20;42.77;101305.28;6251841;22;48333;-89
2022/06/15 07:45:07;;;;;;;;;11.33;9.67;;;;;23.32;42.48;101303.81;6251690;22;45419;-89
2022/06/15 07:50:17;;;;;;;;;9.33;9.00;;;;;23.47;42.40;101296.78;6278945;22;45371;-89
2022/06/15 07:52:45;;;;;;;;;7.33;6.67;;;;;23.54;42.08;101291.03;6251971;22;46942;-90
2022/06/15 07:55:14;;;;;;;;;8.00;7.33;;;;;23.65;42.35;101293.22;6251689;22;45672;-87
2022/06/15 07:57:39;;;;;;;;;7.67;7.33;;;;;23.80;41.79;101288.94;6251621;22;45386;-89
2022/06/15 08:00:07;;;;;;;;;7.33;7.00;;;;;23.96;41.29;101292.56;6277109;22;45410;-88
2022/06/15 08:02:33;;;;;;;;;11.33;8.67;;;;;24.11;41.02;101293.63;6251463;22;47828;-90
2022/06/15 08:04:58;;;;;;;;;9.67;7.00;;;;;24.24;40.67;101287.59;6277576;22;45296;-87
2022/06/15 08:07:24;;;;;;;;;8.33;6.00;;;;;24.39;40.44;101286.78;6277446;22;45170;-88
2022/06/15 08:09:50;;;;;;;;;5.00;5.00;;;;;24.54;40.11;101290.50;6279807;22;45290;-88
2022/06/15 08:12:16;;;;;;;;;6.00;6.00;;;;;24.69;40.17;101284.31;6279232;22;45523;-76
2022/06/15 08:14:53;;;;;;;;;6.00;6.00;;;;;24.89;39.49;101288.63;6278982;22;45179;-87
2022/06/15 08:17:24;;;;;;;;;6.33;6.33;;;;;25.09;39.44;101282.97;6251317;22;45357;-87
2022/06/15 08:19:56;;;;;;;;;6.00;6.00;;;;;25.27;38.96;101275.72;6249405;22;45390;-77
2022/06/15 08:22:22;;;;;;;;;5.33;5.33;;;;;25.40;38.01;101278.59;6247020;22;46870;-77
2022/06/15 08:24:48;;;;;;;;;7.00;6.00;;;;;25.54;38.08;101277.78;6276755;22;45383;-77
2022/06/15 08:27:17;;;;;;;;;8.00;8.00;;;;;25.70;37.92;101277.75;6277655;22;45222;-77
2022/06/15 08:29:44;;;;;;;;;7.00;6.00;;;;;25.86;37.53;101272.38;6276517;22;45509;-77
2022/06/15 08:32:10;;;;;;;;;7.67;6.67;;;;;26.00;37.46;101274.25;6277618;22;45318;-77
2022/06/15 08:34:37;;;;;;;;;8.67;6.67;;;;;26.09;37.31;101268.28;6250212;22;45319;-79
2022/06/15 08:37:09;;;;;;;;;7.67;7.67;;;;;26.14;36.78;101275.16;6278555;22;45307;-78
2022/06/15 08:39:36;;;;;;;;;7.67;7.00;;;;;26.16;36.30;101275.03;6280233;22;45311;-78
2022/06/15 08:42:28;;;;;;;;;4.00;4.00;;;;;26.14;36.80;101271.56;6280638;22;45387;-79
2022/06/15 08:45:19;;;;;;;;;8.67;6.33;;;;;26.07;36.67;101281.88;6261227;22;45369;-81
2022/06/15 08:48:13;;;;;;;;;7.00;7.00;;;;;26.00;36.42;101280.50;6278862;22;45217;-80
2022/06/15 08:50:41;;;;;;;;;7.00;7.00;;;;;26.01;37.02;101275.97;6253718;22;45634;-80
2022/06/15 08:53:16;;;;;;;;;7.33;7.33;;;;;26.02;36.27;101273.19;6252486;22;47802;-81
2022/06/15 08:55:47;;;;;;;;;8.00;8.00;;;;;26.06;35.98;101272.06;6253741;22;45248;-82
2022/06/15 08:58:24;;;;;;;;;6.67;5.67;;;;;26.13;36.58;101269.84;6252419;22;45349;-83
2022/06/15 09:01:01;;;;;;;;;7.00;7.00;;;;;26.21;36.25;101266.69;6253133;22;45366;-81
2022/06/15 09:03:39;;;;;;;;;6.00;5.00;;;;;26.27;35.70;101264.47;6256215;22;47852;-85
2022/06/15 09:06:10;;;;;;;;;6.33;6.33;;;;;26.31;35.21;101266.03;6278909;22;45350;-79
2022/06/15 09:08:51;;;;;;;;;8.33;7.33;;;;;26.40;35.50;101270.84;6249724;22;45245;-81
2022/06/15 09:11:46;;;;;;;;;5.67;5.33;;;;;26.47;34.96;101273.19;6250439;22;45729;-84
2022/06/15 09:14:49;;;;;;;;;7.00;7.00;;;;;26.60;34.94;101274.19;6273693;22;46333;-77
2022/06/15 09:17:20;;;;;;;;;7.00;5.33;;;;;26.74;34.78;101270.63;6275081;22;45407;-79
2022/06/15 09:19:56;;;;;;;;;7.00;6.00;;;;;26.84;34.87;101269.94;6276006;22;45216;-82
2022/06/15 09:22:28;;;;;;;;;6.67;5.67;;;;;26.93;34.80;101265.78;6276900;22;45220;-80
2022/06/15 09:25:07;;;;;;;;;5.00;5.00;;;;;27.00;34.64;101269.81;6276051;22;46397;-79
2022/06/15 09:27:55;;;;;;;;;6.67;6.67;;;;;27.07;34.39;101264.88;6247469;22;45645;-80
2022/06/15 09:30:24;;;;;;;;;6.33;5.00;;;;;27.10;34.01;101280.03;6273469;22;45404;-84
2022/06/15 09:32:57;;;;;;;;;7.67;6.33;;;;;27.13;34.37;101279.81;6275583;22;45273;-79
2022/06/15 09:35:32;;;;;;;;;9.75;6.50;;;;;27.14;33.62;101285.16;6275262;22;45563;-76
2022/06/15 09:38:00;;;;;;;;;6.67;6.67;;;;;27.16;34.03;101285.03;6247030;22;45447;-76
2022/06/15 09:40:46;;;;;;;;;6.00;6.00;;;;;27.20;33.78;101273.97;6240520;22;45360;-75
2022/06/15 09:43:26;;;;;;;;;7.00;6.00;;;;;27.27;33.40;101274.44;6244125;22;45502;-76
2022/06/15 09:45:52;;;;;;;;;8.67;7.00;;;;;27.35;33.11;101274.81;6244411;22;45911;-76
2022/06/15 09:48:27;;;;;;;;;8.00;6.33;;;;;27.41;33.21;101273.53;6244651;22;45571;-78
2022/06/15 09:51:05;;;;;;;;;6.33;6.33;;;;;27.48;33.18;101270.31;6215930;22;45352;-77
2022/06/15 09:54:02;;;;;;;;;7.33;6.33;;;;;27.53;32.66;101271.84;6216738;22;45424;-77
2022/06/15 09:56:28;;;;;;;;;5.67;5.67;;;;;27.59;33.06;101263.31;6204111;22;45647;-78
2022/06/15 09:59:00;;;;;;;;;6.00;6.00;;;;;27.64;32.35;101269.28;6243120;22;45378;-78
2022/06/15 10:01:32;;;;;;;;;6.33;6.33;;;;;27.70;32.49;101272.44;6244960;22;45431;-79
2022/06/15 10:04:00;;;;;;;;;6.33;6.33;;;;;27.78;32.60;101268.38;6217672;22;45442;-79
2022/06/15 10:06:43;;;;;;;;;6.67;6.00;;;;;27.85;32.34;101270.59;6243298;22;47282;-82
2022/06/15 10:09:11;;;;;;;;;6.67;6.67;;;;;27.90;32.42;101270.25;6216459;22;45297;-80
2022/06/15 10:11:42;;;;;;;;;6.00;6.00;;;;;27.95;32.07;101267.25;6243484;22;45361;-81
2022/06/15 10:14:19;;;;;;;;;6.00;5.00;;;;;27.96;32.23;101263.56;6244007;22;45371;-82
2022/06/15 10:17:41;;;;;;;;;9.00;8.25;;;;;28.01;32.05;101274.94;6215830;22;46642;-80
2022/06/15 10:20:39;;;;;;;;;6.00;5.67;;;;;28.05;32.29;101271.06;6196708;22;45304;-79
2022/06/15 10:23:33;;;;;;;;;6.67;6.67;;;;;28.09;31.76;101270.75;6245611;22;45127;-81
2022/06/15 10:26:02;;;;;;;;;6.33;6.33;;;;;28.13;32.21;101264.13;6242122;22;45580;-80
2022/06/15 10:28:59;;;;;;;;;8.67;7.00;;;;;28.18;31.90;101269.22;6217632;22;46283;-79
2022/06/15 10:31:32;;;;;;;;;6.67;6.67;;;;;28.30;31.94;101270.22;6242740;22;45327;-79
2022/06/15 10:34:17;;;;;;;;;6.00;5.33;;;;;28.45;32.14;101268.31;6245593;22;45150;-81
2022/06/15 10:36:42;;;;;;;;;9.00;7.33;;;;;28.54;31.44;101275.78;6245517;22;45542;-83
2022/06/15 10:39:30;;;;;;;;;6.33;6.33;;;;;28.64;31.18;101270.56;6252740;22;45520;-82
2022/06/15 10:42:18;;;;;;;;;5.67;5.67;;;;;28.76;31.54;101276.00;6248448;22;45319;-82
2022/06/15 10:45:00;;;;;;;;;6.50;6.50;;;;;28.87;31.00;101266.19;6247719;22;45298;-84
2022/06/15 10:47:40;;;;;;;;;6.00;5.33;;;;;28.93;31.12;101261.22;6248078;22;45371;-88
2022/06/15 10:50:21;;;;;;;;;6.00;6.00;;;;;29.05;31.53;101264.88;6248755;22;47120;-91
2022/06/15 10:52:53;;;;;;;;;8.67;6.00;;;;;29.20;30.69;101269.19;6250885;22;45314;-90
2022/06/15 11:04:07;;;;;;;;;37.50;33.00;;;;;29.51;29.90;101261.50;6277435;22;45280;-88
2022/06/15 11:06:39;;;;;;;;;24.25;17.25;;;;;29.62;30.74;101258.81;6250974;22;45253;-91
2022/06/15 11:09:08;;;;;;;;;6.67;6.67;;;;;29.75;30.49;101269.66;6277262;22;45422;-92
2022/06/15 11:11:35;;;;;;;;;62.50;50.25;;;;;29.86;30.35;101266.97;6279543;22;45200;-93
2022/06/15 11:14:12;;;;;;;;;14.75;14.25;;;;;30.02;30.25;101257.63;6276967;22;45675;-89
2022/06/15 11:19:26;;;;;;;;;7.00;7.00;;;;;30.44;29.88;101261.56;6280060;22;45410;-89
2022/06/15 11:22:08;;;;;;;;;10.00;7.67;;;;;30.57;29.50;101264.19;6280858;22;45499;-89
2022/06/15 11:24:48;;;;;;;;;8.33;7.67;;;;;30.67;28.79;101262.47;6267956;22;45524;-93
2022/06/15 11:27:25;;;;;;;;;7.00;6.00;;;;;30.75;28.91;101257.28;6295265;22;45215;-87
2022/06/15 11:29:59;;;;;;;;;10.33;10.00;;;;;30.84;29.19;101258.41;6267012;22;44816;-87
2022/06/15 11:32:42;;;;;;;;;8.00;8.00;;;;;30.94;29.10;101263.97;6258290;22;47188;-90
2022/06/15 11:35:14;;;;;;;;;7.67;7.67;;;;;31.01;28.49;101261.59;6280425;22;45451;-88
2022/06/15 11:37:51;;;;;;;;;8.67;7.67;;;;;31.01;28.54;101254.34;6252145;22;45241;-90
2022/06/15 11:40:40;;;;;;;;;8.33;8.33;;;;;31.00;28.38;101255.28;6249629;22;45463;-89
2022/06/15 11:43:29;;;;;;;;;10.33;9.00;;;;;31.01;28.21;101251.59;6278849;22;45567;-87
2022/06/15 11:46:13;;;;;;;;;7.67;7.67;;;;;31.04;28.42;101245.91;6258769;22;45732;-92
2022/06/15 11:49:00;;;;;;;;;9.67;8.00;;;;;31.12;28.33;101251.59;6255626;22;45423;-93
2022/06/15 11:51:47;;;;;;;;;9.33;9.00;;;;;31.18;28.19;101252.94;6251729;22;45676;-88
2022/06/15 11:54:18;;;;;;;;;9.33;8.33;;;;;31.24;28.25;101257.84;6251043;22;47096;-91
2022/06/15 11:57:09;;;;;;;;;5.67;5.67;;;;;31.25;28.19;101256.88;6250524;22;45542;-91
2022/06/15 12:00:18;;;;;;;;;8.50;8.50;;;;;31.29;28.24;101265.66;6250481;22;45206;-89
2022/06/15 12:02:55;;;;;;;;;7.00;7.00;;;;;31.32;27.41;101262.66;6250929;22;45657;-92
2022/06/15 12:05:57;;;;;;;;;6.00;6.00;;;;;31.35;27.48;101263.25;6252322;22;46762;-91